Time;durP1;ratioP1;P1;durP2;ratioP2;P2;SDS_P1;SDS_P2;PMS_P1;PMS_P2;Temp;Humidity;BMP_temperature;BMP_pressure;BME280_temperature;BME280_humidity;BME280_pressure;Samples;Min_cycle;Max_cycle;Signal;HPM_P1;HPM_P2
2022/05/09 00:00:22;;;;;;;3.97;3.58;;;13.10;99.90;;;;;;5094977;28;20549;-50
2022/05/09 00:02:49;;;;;;;4.97;4.47;;;13.10;99.90;;;;;;5095359;28;20229;-49
2022/05/09 00:05:20;;;;;;;12.07;4.50;;;13.00;99.90;;;;;;5094852;28;20371;-50
2022/05/09 00:07:47;;;;;;;5.90;5.03;;;13.10;99.90;;;;;;5095429;28;20436;-47
2022/05/09 00:10:21;;;;;;;5.78;4.18;;;12.90;99.90;;;;;;5095019;28;20220;-53
2022/05/09 00:12:51;;;;;;;7.15;5.40;;;13.00;99.90;;;;;;5094833;28;20205;-49
2022/05/09 00:15:20;;;;;;;7.43;4.13;;;13.10;99.90;;;;;;5095152;28;20509;-48
2022/05/09 00:17:47;;;;;;;4.25;3.63;;;13.10;99.90;;;;;;5094740;28;20218;-48
2022/05/09 00:20:16;;;;;;;5.57;5.07;;;13.10;99.90;;;;;;5095184;28;20209;-48
2022/05/09 00:22:55;;;;;;;5.43;4.80;;;13.20;99.90;;;;;;5094922;28;20385;-50
2022/05/09 00:25:25;;;;;;;7.60;4.75;;;13.10;99.90;;;;;;5095039;28;20270;-49
2022/05/09 00:27:53;;;;;;;5.50;5.00;;;13.00;99.90;;;;;;5094940;28;20288;-47
2022/05/09 00:30:21;;;;;;;4.35;3.95;;;13.10;99.90;;;;;;5094816;28;20206;-48
2022/05/09 00:32:49;;;;;;;7.47;5.28;;;13.20;99.90;;;;;;5094781;28;20198;-48
2022/05/09 00:35:22;;;;;;;6.55;4.40;;;13.10;99.90;;;;;;5095045;28;20273;-50
2022/05/09 00:37:50;;;;;;;9.02;5.72;;;13.00;99.90;;;;;;5094771;28;20245;-49
2022/05/09 00:40:18;;;;;;;6.50;4.78;;;13.10;99.90;;;;;;5094563;28;20237;-51
2022/05/09 00:42:48;;;;;;;10.52;5.35;;;13.10;99.90;;;;;;5099258;28;20206;-46
2022/05/09 00:45:17;;;;;;;7.10;4.65;;;13.00;99.90;;;;;;5098173;28;20403;-51
2022/05/09 00:47:45;;;;;;;12.68;5.93;;;12.90;99.90;;;;;;5089530;28;20206;-51
2022/05/09 00:50:32;;;;;;;4.05;3.70;;;13.00;99.90;;;;;;5107049;28;20449;-48
2022/05/09 00:53:04;;;;;;;5.20;3.88;;;13.00;99.90;;;;;;5119084;27;20283;-50
2022/05/09 00:55:42;;;;;;;6.85;5.15;;;13.00;99.90;;;;;;5118983;28;20311;-50
2022/05/09 00:58:21;;;;;;;6.63;4.47;;;13.00;99.90;;;;;;5119114;28;20261;-50
2022/05/09 01:00:50;;;;;;;6.60;4.25;;;13.00;99.90;;;;;;5118301;28;20214;-49
2022/05/09 01:03:28;;;;;;;3.65;3.30;;;13.00;99.90;;;;;;5118576;28;20201;-50
2022/05/09 01:05:55;;;;;;;4.78;3.50;;;13.00;99.90;;;;;;5119080;28;20200;-48
2022/05/09 01:08:24;;;;;;;7.28;4.20;;;12.90;99.90;;;;;;5118420;28;20213;-47
2022/05/09 01:10:54;;;;;;;5.70;3.60;;;12.90;99.90;;;;;;5119146;28;20267;-52
2022/05/09 01:13:24;;;;;;;4.53;3.85;;;12.80;99.90;;;;;;5118638;28;20205;-48
2022/05/09 01:15:54;;;;;;;5.65;4.10;;;12.70;99.90;;;;;;5118621;28;20215;-48
2022/05/09 01:18:22;;;;;;;5.10;4.57;;;12.60;99.90;;;;;;5117366;28;20286;-48
2022/05/09 01:20:52;;;;;;;5.13;3.85;;;12.60;99.90;;;;;;5117879;28;20239;-52
2022/05/09 01:23:20;;;;;;;5.03;3.72;;;12.50;99.90;;;;;;5117579;28;20216;-49
2022/05/09 01:25:47;;;;;;;7.07;4.55;;;12.40;99.90;;;;;;5118801;27;20220;-50
2022/05/09 01:28:14;;;;;;;6.90;4.53;;;12.40;99.90;;;;;;5118669;28;20271;-49
2022/05/09 01:30:56;;;;;;;5.25;4.15;;;12.30;99.90;;;;;;5118095;28;20225;-49
2022/05/09 01:33:36;;;;;;;5.20;3.30;;;12.30;99.90;;;;;;5118448;28;20468;-48
2022/05/09 01:36:13;;;;;;;4.78;3.67;;;12.20;99.90;;;;;;5117797;28;20209;-48
2022/05/09 01:38:46;;;;;;;6.57;5.20;;;12.10;99.90;;;;;;5118253;28;20553;-50
2022/05/09 01:41:14;;;;;;;6.82;4.18;;;12.10;99.90;;;;;;5118192;28;20296;-50
2022/05/09 01:43:51;;;;;;;4.65;3.42;;;12.10;99.90;;;;;;5117789;28;20232;-49
2022/05/09 01:46:28;;;;;;;7.07;4.80;;;12.10;99.90;;;;;;5117516;28;20207;-51
2022/05/09 01:51:46;;;;;;;6.28;3.78;;;11.90;99.90;;;;;;5117238;28;20232;-48
2022/05/09 01:54:16;;;;;;;6.72;4.72;;;11.90;99.90;;;;;;5117479;28;20250;-49
2022/05/09 01:56:43;;;;;;;4.45;3.67;;;11.90;99.90;;;;;;5117933;28;20205;-48
2022/05/09 01:59:15;;;;;;;10.68;4.78;;;11.90;99.90;;;;;;5117695;28;20201;-49
2022/05/09 02:02:01;;;;;;;10.02;4.45;;;11.70;99.90;;;;;;5117907;28;20628;-47
2022/05/09 02:04:29;;;;;;;90.88;37.10;;;11.60;99.90;;;;;;5117781;28;20568;-49
2022/05/09 02:06:57;;;;;;;5.22;3.60;;;11.70;99.90;;;;;;5117649;28;20262;-48
2022/05/09 02:09:24;;;;;;;3.50;3.20;;;11.80;99.90;;;;;;5117718;28;20209;-47
2022/05/09 02:11:52;;;;;;;8.65;4.57;;;11.90;99.90;;;;;;5117180;28;20420;-48
2022/05/09 02:14:19;;;;;;;5.95;3.45;;;11.70;99.90;;;;;;5117234;28;20208;-49
2022/05/09 02:16:46;;;;;;;4.65;4.15;;;11.70;99.90;;;;;;5117630;28;20530;-48
2022/05/09 02:19:14;;;;;;;5.90;3.65;;;11.70;99.90;;;;;;5117249;28;20202;-48
2022/05/09 02:21:41;;;;;;;7.97;4.25;;;11.70;99.90;;;;;;5117140;28;20548;-47
2022/05/09 02:24:09;;;;;;;5.97;4.50;;;11.70;99.90;;;;;;5117756;28;20244;-48
2022/05/09 02:26:37;;;;;;;5.32;3.80;;;11.80;99.90;;;;;;5117323;28;20527;-51
2022/05/09 02:29:05;;;;;;;4.15;3.60;;;11.70;99.90;;;;;;5116307;28;20209;-49
2022/05/09 02:31:34;;;;;;;4.82;4.30;;;11.70;99.90;;;;;;5116610;28;20228;-49
2022/05/09 02:34:02;;;;;;;7.55;3.65;;;11.60;99.90;;;;;;5116422;28;20205;-50
2022/05/09 02:36:29;;;;;;;5.68;3.90;;;11.70;99.90;;;;;;5117202;28;20198;-49
2022/05/09 02:38:57;;;;;;;5.82;4.43;;;11.60;99.90;;;;;;5117021;28;20465;-48
2022/05/09 02:41:25;;;;;;;4.72;3.05;;;11.60;99.90;;;;;;5116751;28;20432;-49
2022/05/09 02:43:52;;;;;;;4.53;3.88;;;11.60;99.90;;;;;;5116677;28;20309;-50
2022/05/09 02:46:19;;;;;;;5.43;4.50;;;11.60;99.90;;;;;;5116913;28;20207;-48
2022/05/09 02:48:47;;;;;;;5.80;3.75;;;11.40;99.90;;;;;;5116473;28;20209;-47
2022/05/09 02:51:15;;;;;;;4.82;4.00;;;11.30;99.90;;;;;;5116328;28;20226;-48
2022/05/09 02:53:47;;;;;;;5.38;3.05;;;11.40;99.90;;;;;;5116401;28;20209;-48
2022/05/09 02:56:15;;;;;;;3.85;3.40;;;11.40;99.90;;;;;;5116854;28;20310;-50
2022/05/09 02:58:42;;;;;;;4.05;2.70;;;11.30;99.90;;;;;;5116253;28;20227;-51
2022/05/09 03:01:09;;;;;;;6.60;3.30;;;11.40;99.90;;;;;;5116392;28;20228;-46
2022/05/09 03:06:27;;;;;;;5.55;3.97;;;11.40;99.90;;;;;;5116413;28;20213;-50
2022/05/09 03:08:54;;;;;;;3.97;3.25;;;11.40;99.90;;;;;;5116244;28;20217;-48
2022/05/09 03:11:22;;;;;;;7.95;3.53;;;11.30;99.90;;;;;;5116117;28;20311;-48
2022/05/09 03:13:49;;;;;;;4.50;4.10;;;11.30;99.90;;;;;;5116031;28;20211;-50
2022/05/09 03:16:23;;;;;;;9.13;4.50;;;11.30;99.90;;;;;;5115273;28;20231;-46
2022/05/09 03:18:51;;;;;;;5.00;3.75;;;11.30;99.90;;;;;;5115975;28;20229;-50
2022/05/09 03:21:18;;;;;;;5.90;3.72;;;11.30;99.90;;;;;;5115980;28;20217;-49
2022/05/09 03:23:46;;;;;;;7.78;4.35;;;11.20;99.90;;;;;;5116741;28;20279;-50
2022/05/09 03:26:17;;;;;;;5.30;3.65;;;11.30;99.90;;;;;;5115514;28;20276;-48
2022/05/09 03:28:44;;;;;;;6.15;3.60;;;11.20;99.90;;;;;;5115683;28;20212;-50
2022/05/09 03:31:13;;;;;;;9.45;3.80;;;11.10;99.90;;;;;;5115361;28;20231;-48
2022/05/09 03:33:41;;;;;;;3.58;3.22;;;11.10;99.90;;;;;;5115961;28;20232;-47
2022/05/09 03:36:08;;;;;;;5.90;3.15;;;11.20;99.90;;;;;;5115719;28;20311;-48
2022/05/09 03:38:38;;;;;;;7.60;3.47;;;11.20;99.90;;;;;;5115539;28;20448;-49
2022/05/09 03:41:05;;;;;;;5.95;4.22;;;11.20;99.90;;;;;;5115921;28;20221;-49
2022/05/09 03:43:34;;;;;;;8.73;3.40;;;11.30;99.90;;;;;;5115378;28;20285;-50
2022/05/09 03:46:01;;;;;;;5.80;3.92;;;11.30;99.90;;;;;;5115577;28;20205;-48
2022/05/09 03:48:29;;;;;;;7.25;3.30;;;11.30;99.90;;;;;;5115500;27;20297;-49
2022/05/09 03:50:56;;;;;;;4.20;3.03;;;11.40;99.90;;;;;;5115400;28;20228;-48
2022/05/09 03:53:24;;;;;;;6.05;3.72;;;11.50;99.90;;;;;;5115421;28;20212;-50
2022/05/09 03:55:52;;;;;;;3.63;3.00;;;11.60;99.90;;;;;;5115372;28;20205;-47
2022/05/09 03:58:19;;;;;;;6.85;3.65;;;11.70;99.90;;;;;;5115125;28;20237;-49
2022/05/09 04:00:47;;;;;;;5.05;3.00;;;11.50;99.90;;;;;;5108517;28;20523;-48
2022/05/09 04:03:14;;;;;;;6.82;3.42;;;11.50;99.90;;;;;;5105473;28;20201;-51
2022/05/09 04:05:42;;;;;;;6.65;4.25;;;11.50;99.90;;;;;;5115412;28;20201;-51
2022/05/09 04:08:16;;;;;;;5.38;3.35;;;11.70;99.90;;;;;;5115185;28;20484;-48
2022/05/09 04:10:45;;;;;;;8.60;4.22;;;11.60;99.90;;;;;;5115471;28;20248;-49
2022/05/09 04:13:13;;;;;;;6.13;4.13;;;11.70;99.90;;;;;;5114854;28;20205;-51
2022/05/09 04:18:35;;;;;;;4.38;3.83;;;11.90;99.90;;;;;;5114893;28;20312;-46
2022/05/09 04:21:03;;;;;;;5.43;4.00;;;12.00;99.90;;;;;;5106738;28;20289;-52
2022/05/09 04:23:31;;;;;;;9.35;4.05;;;11.80;99.90;;;;;;5111851;28;20301;-51
2022/05/09 04:25:58;;;;;;;5.93;3.03;;;11.70;99.90;;;;;;5096671;28;20398;-49
2022/05/09 04:28:26;;;;;;;8.43;4.07;;;11.80;99.90;;;;;;5096122;28;20198;-47
2022/05/09 04:30:53;;;;;;;8.32;3.45;;;11.80;99.90;;;;;;5096141;28;20230;-51
2022/05/09 04:33:27;;;;;;;5.82;3.50;;;12.00;99.90;;;;;;5096234;28;20446;-49
2022/05/09 04:35:55;;;;;;;4.93;4.10;;;12.10;99.90;;;;;;5096924;28;20693;-47
2022/05/09 04:38:26;;;;;;;6.65;3.65;;;12.10;99.90;;;;;;5107854;28;20288;-47
2022/05/09 04:40:56;;;;;;;12.40;5.72;;;12.20;99.90;;;;;;5115441;28;20547;-49
2022/05/09 04:43:26;;;;;;;3.63;3.30;;;12.20;99.90;;;;;;5116717;28;20201;-48
2022/05/09 04:45:54;;;;;;;6.22;3.85;;;12.20;99.90;;;;;;5116165;28;20380;-48
2022/05/09 04:48:22;;;;;;;8.75;4.50;;;12.30;99.90;;;;;;5114332;28;20209;-49
2022/05/09 04:50:49;;;;;;;4.57;3.70;;;12.40;99.90;;;;;;5100540;28;20540;-51
2022/05/09 04:53:17;;;;;;;4.03;3.22;;;12.20;99.90;;;;;;5106057;28;20252;-48
2022/05/09 04:55:48;;;;;;;5.90;4.00;;;12.30;99.90;;;;;;5116014;28;20206;-47
2022/05/09 04:58:20;;;;;;;4.60;3.58;;;12.40;99.90;;;;;;5116049;28;20292;-50
2022/05/09 05:00:47;;;;;;;6.88;4.35;;;12.40;99.90;;;;;;5116058;28;20327;-47
2022/05/09 05:03:15;;;;;;;9.18;4.72;;;12.40;99.90;;;;;;5115960;28;20193;-49
2022/05/09 05:05:43;;;;;;;7.93;4.55;;;12.40;99.90;;;;;;5116469;28;20208;-49
2022/05/09 05:08:13;;;;;;;4.82;3.22;;;12.60;99.90;;;;;;5116014;28;20244;-48
2022/05/09 05:10:42;;;;;;;5.60;4.15;;;12.40;99.90;;;;;;5116419;28;20586;-49
2022/05/09 05:13:10;;;;;;;4.20;3.80;;;12.50;99.90;;;;;;5114972;28;20516;-55
2022/05/09 05:15:37;;;;;;;8.18;3.47;;;12.60;99.90;;;;;;5108690;28;20278;-52
2022/05/09 05:18:07;;;;;;;9.18;3.90;;;12.80;99.90;;;;;;5095530;28;20226;-55
2022/05/09 05:20:35;;;;;;;7.32;4.45;;;13.00;99.90;;;;;;5095716;28;20389;-52
2022/05/09 05:23:03;;;;;;;4.72;3.72;;;13.00;99.90;;;;;;5103784;28;20196;-57
2022/05/09 05:25:30;;;;;;;4.25;3.85;;;13.00;99.90;;;;;;5105059;28;20228;-62
2022/05/09 05:27:58;;;;;;;3.70;3.17;;;12.80;99.90;;;;;;5097653;28;20597;-51
2022/05/09 05:30:25;;;;;;;6.03;3.90;;;12.90;99.90;;;;;;5081457;28;20445;-51
2022/05/09 05:32:55;;;;;;;5.68;2.95;;;12.90;99.90;;;;;;5083537;28;20476;-52
2022/05/09 05:35:24;;;;;;;5.75;3.42;;;12.90;99.90;;;;;;5086748;28;20237;-54
2022/05/09 05:37:52;;;;;;;12.13;4.15;;;13.00;99.90;;;;;;5107089;28;20208;-60
2022/05/09 05:40:19;;;;;;;7.95;3.95;;;13.10;99.90;;;;;;5097529;28;20202;-51
2022/05/09 05:42:48;;;;;;;6.78;3.65;;;13.10;99.90;;;;;;5098603;28;20459;-56
2022/05/09 05:45:21;;;;;;;3.80;3.17;;;13.30;99.90;;;;;;5098711;28;20281;-51
2022/05/09 05:47:50;;;;;;;7.65;4.15;;;13.40;99.90;;;;;;5098746;28;20202;-59
2022/05/09 05:50:21;;;;;;;9.07;4.00;;;13.30;99.90;;;;;;5098856;28;20212;-53
2022/05/09 05:52:49;;;;;;;4.15;3.42;;;13.10;99.90;;;;;;5098311;28;20221;-57
2022/05/09 05:55:19;;;;;;;13.32;3.55;;;13.20;99.90;;;;;;5117524;28;20413;-53
2022/05/09 05:57:46;;;;;;;5.10;3.55;;;13.30;99.90;;;;;;5119772;28;20202;-50
2022/05/09 06:00:21;;;;;;;14.48;4.40;;;13.50;99.90;;;;;;5117796;28;20319;-56
2022/05/09 06:02:50;;;;;;;6.28;3.30;;;13.80;99.90;;;;;;5118729;28;20212;-54
2022/05/09 06:05:19;;;;;;;5.10;4.03;;;14.00;99.90;;;;;;5116719;28;20202;-51
2022/05/09 06:07:51;;;;;;;7.40;5.20;;;14.20;99.90;;;;;;5099780;28;20482;-58
2022/05/09 06:10:19;;;;;;;8.60;3.88;;;14.40;99.90;;;;;;5098596;28;20282;-56
2022/05/09 06:12:49;;;;;;;3.40;3.10;;;14.50;99.90;;;;;;5098825;28;20202;-55
2022/05/09 06:15:31;;;;;;;6.97;3.47;;;14.60;99.90;;;;;;5097995;28;20231;-54
2022/05/09 06:18:03;;;;;;;7.28;3.60;;;14.70;99.90;;;;;;5098162;28;20514;-53
2022/05/09 06:20:34;;;;;;;5.18;3.65;;;14.60;99.90;;;;;;5098111;28;20207;-51
2022/05/09 06:23:03;;;;;;;5.30;3.53;;;14.80;99.90;;;;;;5097780;28;20406;-52
2022/05/09 06:25:34;;;;;;;6.60;4.30;;;15.00;99.90;;;;;;5098189;28;20503;-52
2022/05/09 06:28:05;;;;;;;5.87;3.70;;;15.50;99.90;;;;;;5097003;28;20432;-56
2022/05/09 06:30:32;;;;;;;8.37;3.67;;;15.70;99.90;;;;;;5097833;28;20443;-55
2022/05/09 06:32:59;;;;;;;4.27;3.87;;;16.10;99.90;;;;;;5097425;28;20429;-56
2022/05/09 06:35:28;;;;;;;10.00;3.90;;;16.10;99.90;;;;;;5096681;28;20438;-53
2022/05/09 06:38:02;;;;;;;4.87;3.33;;;16.20;99.90;;;;;;5096141;28;20694;-54
2022/05/09 06:40:31;;;;;;;8.37;3.93;;;16.70;99.90;;;;;;5096433;28;20586;-52
2022/05/09 06:42:59;;;;;;;5.63;3.90;;;17.00;99.90;;;;;;5095390;28;20685;-53
2022/05/09 06:45:26;;;;;;;6.47;4.73;;;17.20;99.90;;;;;;5097077;28;20444;-56
2022/05/09 06:47:55;;;;;;;8.00;4.60;;;18.50;99.90;;;;;;5098257;28;20437;-57
2022/05/09 06:50:26;;;;;;;4.43;4.00;;;19.50;99.90;;;;;;5097020;28;20749;-51
2022/05/09 06:52:54;;;;;;;5.03;3.30;;;20.90;99.90;;;;;;5098259;28;20410;-52
2022/05/09 06:55:40;;;;;;;8.00;4.23;;;21.30;99.90;;;;;;5105887;28;20411;-58
2022/05/09 06:58:11;;;;;;;8.80;4.13;;;20.40;99.90;;;;;;5106619;28;20728;-58
2022/05/09 07:00:38;;;;;;;5.50;3.77;;;20.10;99.90;;;;;;5105981;28;20420;-61
2022/05/09 07:03:06;;;;;;;5.30;4.20;;;21.40;99.90;;;;;;5106714;28;20419;-60
2022/05/09 07:05:34;;;;;;;6.90;4.00;;;22.70;99.50;;;;;;5106135;28;20738;-57
2022/05/09 07:08:01;;;;;;;8.40;4.17;;;23.10;98.10;;;;;;5098808;28;20508;-56
2022/05/09 07:10:29;;;;;;;4.53;4.00;;;24.60;95.40;;;;;;5097131;28;20435;-56
2022/05/09 07:12:58;;;;;;;6.80;4.10;;;25.90;91.00;;;;;;5096898;28;20518;-57
2022/05/09 07:15:29;;;;;;;4.30;3.90;;;26.60;87.70;;;;;;5097402;28;20551;-56
2022/05/09 07:17:58;;;;;;;4.70;3.43;;;25.00;87.20;;;;;;5096967;28;20439;-53
2022/05/09 07:20:30;;;;;;;6.00;3.90;;;25.80;84.80;;;;;;5097169;28;20949;-53
2022/05/09 07:23:10;;;;;;;5.57;4.20;;;27.60;80.30;;;;;;5096610;28;20435;-56
2022/05/09 07:25:39;;;;;;;6.70;4.53;;;29.90;72.10;;;;;;5097040;28;20505;-53
2022/05/09 07:28:07;;;;;;;8.63;4.70;;;26.70;75.10;;;;;;5091023;28;20466;-54
2022/05/09 07:30:35;;;;;;;7.07;4.30;;;26.60;75.60;;;;;;5090692;28;20817;-55
2022/05/09 07:33:03;;;;;;;4.60;3.37;;;27.70;72.90;;;;;;5091307;28;20510;-54
2022/05/09 07:35:32;;;;;;;4.90;3.93;;;28.60;69.70;;;;;;5089588;28;20777;-57
2022/05/09 07:37:59;;;;;;;5.37;3.70;;;30.90;65.20;;;;;;5090598;28;20427;-55
2022/05/09 07:40:34;;;;;;;6.93;4.17;;;32.40;60.10;;;;;;5089034;28;20472;-57
2022/05/09 07:43:01;;;;;;;3.80;3.30;;;33.10;56.60;;;;;;5101882;28;20776;-54
2022/05/09 07:45:29;;;;;;;6.10;4.13;;;30.10;58.80;;;;;;5109107;28;20495;-59
2022/05/09 07:47:56;;;;;;;3.90;3.47;;;28.60;61.50;;;;;;5116964;28;20453;-58
2022/05/09 07:50:26;;;;;;;5.37;4.27;;;28.80;62.00;;;;;;5116341;28;20443;-57
2022/05/09 07:52:53;;;;;;;8.70;3.40;;;29.10;60.70;;;;;;5120094;28;20459;-61
2022/05/09 07:55:20;;;;;;;8.50;4.63;;;28.60;61.70;;;;;;5117635;28;20462;-51
2022/05/09 07:57:47;;;;;;;5.80;3.37;;;29.70;59.30;;;;;;5117112;28;20471;-54
2022/05/09 08:00:23;;;;;;;5.40;4.20;;;30.90;57.60;;;;;;5116790;28;20569;-55
2022/05/09 08:02:51;;;;;;;6.23;4.13;;;31.00;57.20;;;;;;5116482;28;20442;-58
2022/05/09 08:05:18;;;;;;;4.77;4.10;;;32.70;55.00;;;;;;5117010;28;20460;-60
2022/05/09 08:07:45;;;;;;;4.37;3.97;;;31.60;55.20;;;;;;5116754;28;20431;-50
2022/05/09 08:10:17;;;;;;;9.63;4.90;;;30.30;57.00;;;;;;5116415;28;20435;-55
2022/05/09 08:12:46;;;;;;;7.97;3.73;;;31.80;55.60;;;;;;5116427;28;20783;-54
2022/05/09 08:15:15;;;;;;;7.70;4.13;;;31.60;54.40;;;;;;5116610;28;20471;-57
2022/05/09 08:17:45;;;;;;;6.10;3.70;;;30.90;55.60;;;;;;5116582;28;20850;-57
2022/05/09 08:20:15;;;;;;;3.53;3.30;;;31.40;55.30;;;;;;5116328;28;20476;-58
2022/05/09 08:22:45;;;;;;;7.60;4.30;;;32.50;53.80;;;;;;5116313;28;20536;-54
2022/05/09 08:25:17;;;;;;;5.80;4.37;;;33.50;51.50;;;;;;5115761;28;20712;-56
2022/05/09 08:27:47;;;;;;;4.57;3.83;;;33.10;52.10;;;;;;5116780;28;20485;-54
2022/05/09 08:30:15;;;;;;;4.43;3.30;;;33.70;51.30;;;;;;5116074;28;20744;-52
2022/05/09 08:32:42;;;;;;;3.40;3.07;;;33.40;51.10;;;;;;5116533;28;20652;-52
2022/05/09 08:35:10;;;;;;;5.13;4.10;;;31.40;53.20;;;;;;5116161;28;20457;-54
2022/05/09 08:37:37;;;;;;;7.07;4.10;;;32.70;51.80;;;;;;5116653;28;20451;-52
2022/05/09 08:40:06;;;;;;;6.80;3.93;;;33.30;51.20;;;;;;5115984;28;20511;-51
2022/05/09 08:42:48;;;;;;;3.57;3.27;;;32.60;51.80;;;;;;5116891;28;20459;-55
2022/05/09 08:45:31;;;;;;;12.03;4.47;;;30.80;53.80;;;;;;5107775;28;20536;-56
2022/05/09 08:48:08;;;;;;;5.53;4.17;;;32.90;51.80;;;;;;5112843;28;20430;-57
2022/05/09 08:50:37;;;;;;;5.10;3.73;;;32.60;50.90;;;;;;5115575;28;20445;-57
2022/05/09 08:53:08;;;;;;;4.67;3.30;;;31.00;53.50;;;;;;5115928;28;20429;-56
2022/05/09 08:55:42;;;;;;;14.50;4.57;;;30.30;53.80;;;;;;5116677;28;20511;-54
2022/05/09 08:58:27;;;;;;;4.03;3.63;;;31.10;53.00;;;;;;5115676;28;20497;-56
2022/05/09 09:01:03;;;;;;;4.03;3.33;;;30.00;53.50;;;;;;5116288;28;20526;-55
2022/05/09 09:03:38;;;;;;;9.43;4.60;;;30.30;53.30;;;;;;5119618;28;20651;-55
2022/05/09 09:06:20;;;;;;;3.50;3.20;;;28.00;57.10;;;;;;5101850;28;20431;-55
2022/05/09 09:09:06;;;;;;;4.93;3.80;;;29.70;54.70;;;;;;5098592;28;20821;-52
2022/05/09 09:11:49;;;;;;;4.20;2.90;;;30.30;53.80;;;;;;5099470;28;20507;-55
2022/05/09 09:14:47;;;;;;;4.57;2.60;;;29.40;54.50;;;;;;5099470;28;20430;-52
2022/05/09 09:17:33;;;;;;;3.47;3.27;;;28.80;54.50;;;;;;5099283;28;20454;-54
2022/05/09 09:20:14;;;;;;;10.40;3.50;;;28.00;55.80;;;;;;5092906;28;20495;-51
2022/05/09 09:23:14;;;;;;;3.43;2.67;;;28.00;55.50;;;;;;5098135;28;20634;-56
2022/05/09 09:25:59;;;;;;;6.80;3.70;;;26.60;57.20;;;;;;5098272;28;20438;-52
2022/05/09 09:28:36;;;;;;;4.27;3.33;;;26.00;59.60;;;;;;5098342;28;20885;-58
2022/05/09 09:31:10;;;;;;;7.03;3.10;;;25.30;60.60;;;;;;5097796;28;20677;-56
2022/05/09 09:33:58;;;;;;;7.00;3.40;;;24.10;62.20;;;;;;5098436;28;20672;-52
2022/05/09 09:36:41;;;;;;;5.83;3.07;;;23.10;65.00;;;;;;5097530;28;20678;-55
2022/05/09 09:39:19;;;;;;;3.70;2.87;;;22.30;67.20;;;;;;5097951;28;20462;-57
2022/05/09 09:41:47;;;;;;;3.17;2.30;;;22.00;67.60;;;;;;5097159;28;20450;-53
2022/05/09 09:44:21;;;;;;;2.50;2.30;;;21.80;68.30;;;;;;5097695;28;20697;-54
2022/05/09 09:47:12;;;;;;;4.50;2.30;;;21.70;69.60;;;;;;5097615;28;20438;-56
2022/05/09 09:50:25;;;;;;;2.40;1.93;;;21.40;68.50;;;;;;5097256;28;20691;-54
2022/05/09 09:52:58;;;;;;;7.63;2.47;;;21.10;68.30;;;;;;5097641;28;20439;-56
2022/05/09 09:55:33;;;;;;;3.80;2.20;;;20.90;69.90;;;;;;5098108;28;20462;-54
2022/05/09 09:58:20;;;;;;;3.17;2.33;;;20.80;68.40;;;;;;5097253;28;20436;-56
2022/05/09 10:01:03;;;;;;;6.23;2.43;;;20.40;69.90;;;;;;5098133;28;20575;-53
2022/05/09 10:03:38;;;;;;;4.63;2.93;;;20.40;70.40;;;;;;5097534;28;20486;-58
2022/05/09 10:06:18;;;;;;;6.10;1.97;;;20.40;68.50;;;;;;5097710;28;20435;-55
2022/05/09 10:08:46;;;;;;;10.03;3.40;;;20.50;68.50;;;;;;5097641;28;20409;-56
2022/05/09 10:11:19;;;;;;;5.43;2.77;;;20.30;67.10;;;;;;5097419;28;20483;-55
2022/05/09 10:13:53;;;;;;;5.77;2.37;;;20.10;66.40;;;;;;5097531;28;20470;-54
2022/05/09 10:16:40;;;;;;;2.73;1.73;;;20.30;68.00;;;;;;5097895;28;20522;-57
2022/05/09 10:19:10;;;;;;;5.90;2.73;;;20.30;68.20;;;;;;5098177;28;20430;-53
2022/05/09 10:24:52;;;;;;;3.93;2.47;;;20.20;70.30;;;;;;5097457;28;20407;-50
2022/05/09 10:27:23;;;;;;;4.90;2.30;;;20.40;68.60;;;;;;5097414;28;20425;-54
2022/05/09 10:29:54;;;;;;;2.00;1.90;;;20.60;67.50;;;;;;5097412;28;20528;-55
2022/05/09 10:32:43;;;;;;;4.17;2.20;;;20.50;66.70;;;;;;5096592;28;20433;-53
2022/05/09 10:35:13;;;;;;;3.67;1.87;;;20.40;64.90;;;;;;5097190;28;20594;-57
2022/05/09 10:37:50;;;;;;;4.13;2.63;;;20.30;66.30;;;;;;5096804;28;20776;-54
2022/05/09 10:40:30;;;;;;;2.40;2.20;;;20.50;67.40;;;;;;5097595;28;20480;-51
2022/05/09 10:43:08;;;;;;;5.17;2.10;;;20.60;65.70;;;;;;5097019;28;20432;-56
2022/05/09 10:45:55;;;;;;;3.50;2.00;;;20.70;66.50;;;;;;5097270;28;20760;-52
2022/05/09 10:48:29;;;;;;;2.50;2.30;;;20.80;65.50;;;;;;5096529;28;20636;-53
2022/05/09 10:51:32;;;;;;;8.07;2.80;;;21.00;66.10;;;;;;5097090;28;20457;-54
2022/05/09 10:54:52;;;;;;;2.10;1.90;;;20.80;66.10;;;;;;5063455;28;20794;-54
2022/05/09 10:58:00;;;;;;;6.00;2.40;;;20.70;68.10;;;;;;5096752;28;20530;-58
2022/05/09 11:00:40;;;;;;;2.43;2.23;;;21.20;69.10;;;;;;5095858;28;20476;-55
2022/05/09 11:03:35;;;;;;;3.00;2.23;;;20.90;66.70;;;;;;5096653;28;20436;-52
2022/05/09 11:06:29;;;;;;;2.83;2.03;;;20.60;66.00;;;;;;5096210;28;20506;-53
2022/05/09 11:09:05;;;;;;;3.57;2.40;;;20.90;64.60;;;;;;5097402;28;20725;-57
2022/05/09 11:12:26;;;;;;;3.27;2.43;;;20.80;65.20;;;;;;5096192;28;20428;-55
2022/05/09 11:15:11;;;;;;;2.93;2.33;;;21.10;66.10;;;;;;5053117;28;20465;-56
2022/05/09 11:18:07;;;;;;;2.40;2.13;;;21.10;64.20;;;;;;5093007;28;20757;-55
2022/05/09 11:20:40;;;;;;;2.40;2.13;;;21.80;65.70;;;;;;5099116;28;20486;-52
2022/05/09 11:23:53;;;;;;;2.80;2.17;;;22.20;61.20;;;;;;5096140;28;20435;-54
2022/05/09 11:26:35;;;;;;;3.27;2.30;;;22.70;60.10;;;;;;5086679;28;20665;-54
2022/05/09 11:29:17;;;;;;;3.20;1.90;;;23.00;60.00;;;;;;5096361;28;20468;-52
2022/05/09 11:32:16;;;;;;;4.80;2.73;;;23.50;60.70;;;;;;5096451;28;20639;-55
2022/05/09 11:35:02;;;;;;;7.67;2.73;;;23.60;60.30;;;;;;5096069;28;20636;-56
2022/05/09 11:37:35;;;;;;;5.70;2.50;;;22.60;64.50;;;;;;5096042;28;20405;-53
2022/05/09 11:40:26;;;;;;;2.87;2.67;;;21.70;66.80;;;;;;5095682;28;20460;-51
2022/05/09 11:43:34;;;;;;;2.60;2.40;;;21.40;66.90;;;;;;5095902;28;20718;-54
2022/05/09 11:46:12;;;;;;;2.57;1.80;;;21.30;67.60;;;;;;5095629;28;20644;-54
2022/05/09 11:49:01;;;;;;;3.37;2.50;;;21.10;68.40;;;;;;5095846;28;20409;-54
2022/05/09 11:51:40;;;;;;;3.80;3.50;;;21.10;67.70;;;;;;5096117;28;20474;-52
2022/05/09 11:54:17;;;;;;;2.17;1.83;;;20.90;67.90;;;;;;5096030;28;20415;-54
2022/05/09 11:56:48;;;;;;;3.47;2.53;;;20.90;68.30;;;;;;5095902;28;20442;-52
2022/05/09 11:59:31;;;;;;;2.67;2.47;;;20.80;67.20;;;;;;5095622;28;20534;-54
2022/05/09 12:02:09;;;;;;;8.63;3.40;;;20.90;67.00;;;;;;5095308;28;20661;-54
2022/05/09 12:04:47;;;;;;;3.93;2.40;;;21.10;67.70;;;;;;5096447;28;20429;-54
2022/05/09 12:07:26;;;;;;;9.53;3.30;;;21.30;66.20;;;;;;5095824;28;21083;-52
2022/05/09 12:10:16;;;;;;;6.87;2.73;;;21.50;67.30;;;;;;5097874;28;20446;-56
2022/05/09 12:12:49;;;;;;;2.87;2.13;;;21.10;67.10;;;;;;5098740;28;20495;-53
2022/05/09 12:15:36;;;;;;;6.10;1.83;;;21.30;66.60;;;;;;5101709;28;20437;-55
2022/05/09 12:18:07;;;;;;;4.40;2.80;;;21.70;66.40;;;;;;5097319;28;20493;-56
2022/05/09 12:20:40;;;;;;;2.00;1.70;;;22.20;62.50;;;;;;5096849;28;20448;-53
2022/05/09 12:23:12;;;;;;;4.13;2.23;;;21.90;64.60;;;;;;5095229;28;20411;-57
2022/05/09 12:25:43;;;;;;;2.60;2.40;;;21.60;65.60;;;;;;5095753;28;20570;-56
2022/05/09 12:28:16;;;;;;;6.30;2.63;;;21.70;67.40;;;;;;5095418;28;20476;-53
2022/05/09 12:30:58;;;;;;;3.60;2.03;;;21.40;66.30;;;;;;5095207;28;20444;-53
2022/05/09 12:33:57;;;;;;;5.53;2.57;;;21.10;67.50;;;;;;5094973;28;20466;-53
2022/05/09 12:36:27;;;;;;;3.70;2.27;;;20.80;68.30;;;;;;5095457;28;20416;-52
2022/05/09 12:39:12;;;;;;;4.37;2.60;;;20.70;69.30;;;;;;5099359;28;20427;-51
2022/05/09 12:41:54;;;;;;;5.03;2.87;;;20.50;70.10;;;;;;5098864;28;20742;-53
2022/05/09 12:44:27;;;;;;;2.97;2.33;;;20.20;71.00;;;;;;5099475;28;20431;-56
2022/05/09 12:47:20;;;;;;;5.20;2.43;;;20.10;71.80;;;;;;5101166;28;20503;-54
2022/05/09 12:50:08;;;;;;;3.70;2.93;;;20.40;71.00;;;;;;5101388;28;20825;-55
2022/05/09 12:52:41;;;;;;;7.73;2.40;;;20.90;69.50;;;;;;5101155;28;20440;-58
2022/05/09 12:57:57;;;;;;;5.47;2.90;;;21.60;68.00;;;;;;5100561;28;20516;-55
2022/05/09 13:00:30;;;;;;;4.13;2.80;;;21.80;68.00;;;;;;5099515;28;20883;-54
2022/05/09 13:03:17;;;;;;;5.60;2.63;;;21.90;66.90;;;;;;5099400;28;20429;-54
2022/05/09 13:05:46;;;;;;;3.70;2.90;;;21.80;67.40;;;;;;5099046;28;20777;-57
2022/05/09 13:08:19;;;;;;;1.97;1.87;;;21.80;66.80;;;;;;5098661;28;20416;-55
2022/05/09 13:10:58;;;;;;;3.83;2.80;;;21.60;67.50;;;;;;5098453;28;20447;-55
2022/05/09 13:13:36;;;;;;;2.97;2.40;;;21.20;68.60;;;;;;5098252;28;20800;-53
2022/05/09 13:16:04;;;;;;;5.47;2.90;;;20.90;69.40;;;;;;5098610;28;20413;-57
2022/05/09 13:18:32;;;;;;;2.67;2.30;;;20.80;70.60;;;;;;5098695;28;20432;-54
2022/05/09 13:21:04;;;;;;;5.80;3.17;;;20.70;70.40;;;;;;5098809;28;20485;-53
2022/05/09 13:23:41;;;;;;;4.30;3.80;;;20.70;71.20;;;;;;5098947;28;20690;-52
2022/05/09 13:26:14;;;;;;;4.67;2.47;;;20.90;71.60;;;;;;5099461;28;20416;-55
2022/05/09 13:28:50;;;;;;;2.80;2.47;;;20.90;69.10;;;;;;5099426;28;20448;-53
2022/05/09 13:31:42;;;;;;;3.50;2.87;;;21.00;70.40;;;;;;5098978;28;20443;-51